createdAt,value
2022-12-18T00:01:18.556Z,3.32
2022-12-18T00:03:47.241Z,3.29
2022-12-18T00:06:15.653Z,3.25
2022-12-18T00:08:43.298Z,3.29
2022-12-18T00:11:14.630Z,3.27
2022-12-18T00:13:42.983Z,3.25
2022-12-18T00:16:14.718Z,3.23
2022-12-18T00:18:43.472Z,3.23
2022-12-18T00:21:13.859Z,3.22
2022-12-18T00:23:43.931Z,3.21
2022-12-18T00:26:14.130Z,3.19
2022-12-18T00:28:41.870Z,3.14
2022-12-18T00:31:11.732Z,3.13
2022-12-18T00:33:41.222Z,3.14
2022-12-18T00:36:12.765Z,3.15
2022-12-18T00:38:41.503Z,3.15
2022-12-18T00:41:11.027Z,3.13
2022-12-18T00:43:38.391Z,3.11
2022-12-18T00:46:07.050Z,3.13
2022-12-18T00:48:35.093Z,3.12
2022-12-18T00:51:04.253Z,3.11
2022-12-18T00:53:31.900Z,3.05
2022-12-18T00:55:59.595Z,3.06
2022-12-18T00:58:27.269Z,3.00
2022-12-18T01:00:54.937Z,3.06
2022-12-18T01:03:22.581Z,3.06
2022-12-18T01:05:50.310Z,3.04
2022-12-18T01:08:19.621Z,3.03
2022-12-18T01:10:47.300Z,3.02
2022-12-18T01:13:15.199Z,3.01
2022-12-18T01:15:42.925Z,3.01
2022-12-18T01:18:10.590Z,3.00
2022-12-18T01:20:40.031Z,2.99
2022-12-18T01:23:07.709Z,2.94
2022-12-18T01:25:37.624Z,2.96
2022-12-18T01:28:05.515Z,2.86
2022-12-18T01:30:33.196Z,2.95
2022-12-18T01:33:00.845Z,2.92
2022-12-18T01:35:28.548Z,2.90
2022-12-18T01:37:56.666Z,2.89
2022-12-18T01:40:24.401Z,2.89
2022-12-18T01:42:55.116Z,2.87
2022-12-18T01:45:29.248Z,2.86
2022-12-18T01:47:59.684Z,2.75
2022-12-18T01:50:32.536Z,2.82
2022-12-18T01:53:05.797Z,2.82
2022-12-18T01:55:39.115Z,2.79
2022-12-18T01:58:08.243Z,2.77
2022-12-18T02:00:36.178Z,2.70
2022-12-18T02:03:03.930Z,2.74
2022-12-18T02:05:42.105Z,2.73
2022-12-18T02:08:12.787Z,2.71
2022-12-18T02:10:47.821Z,2.66
2022-12-18T02:13:22.869Z,2.70
2022-12-18T02:16:00.253Z,2.67
2022-12-18T02:18:34.511Z,2.64
2022-12-18T02:21:10.990Z,2.64
2022-12-18T02:23:51.509Z,2.63
2022-12-18T02:26:27.860Z,2.62
2022-12-18T02:28:59.652Z,2.56
2022-12-18T02:31:30.460Z,2.59
2022-12-18T02:34:02.019Z,2.57
2022-12-18T02:36:31.654Z,2.50
2022-12-18T02:39:01.622Z,2.52
2022-12-18T02:41:31.944Z,2.52
2022-12-18T02:44:03.554Z,2.51
2022-12-18T02:46:35.115Z,2.48
2022-12-18T02:49:17.629Z,2.46
2022-12-18T02:51:52.741Z,2.45
2022-12-18T02:54:33.273Z,2.43
2022-12-18T02:57:13.412Z,2.43
2022-12-18T02:59:45.981Z,2.40
2022-12-18T03:02:23.696Z,2.42
2022-12-18T03:04:57.848Z,2.40
2022-12-18T03:07:35.280Z,2.38
2022-12-18T03:10:03.721Z,2.36
2022-12-18T03:12:37.466Z,2.35
2022-12-18T03:15:15.990Z,2.34
2022-12-18T03:17:50.848Z,2.31
2022-12-18T03:20:21.851Z,2.28
2022-12-18T03:22:55.739Z,2.31
2022-12-18T03:25:24.641Z,2.28
2022-12-18T03:27:58.746Z,2.27
2022-12-18T03:30:28.549Z,2.26
2022-12-18T03:33:03.775Z,2.23
2022-12-18T03:35:37.041Z,2.26
2022-12-18T03:38:04.807Z,2.24
2022-12-18T03:40:43.094Z,2.21
2022-12-18T03:43:18.861Z,2.22
2022-12-18T03:45:55.092Z,2.20
2022-12-18T03:48:31.446Z,2.18
2022-12-18T03:51:02.429Z,2.16
2022-12-18T03:53:38.796Z,2.14
2022-12-18T03:56:08.618Z,2.11
2022-12-18T03:58:40.795Z,2.11
2022-12-18T04:01:12.867Z,2.10
2022-12-18T04:03:43.166Z,2.10
2022-12-18T04:06:12.061Z,2.02
2022-12-18T04:08:41.066Z,2.07
2022-12-18T04:11:09.024Z,2.07
2022-12-18T04:13:39.800Z,2.03
2022-12-18T04:16:08.435Z,2.03
2022-12-18T04:18:36.373Z,2.03
2022-12-18T04:21:04.320Z,2.02
2022-12-18T04:23:31.961Z,1.98
2022-12-18T04:25:59.654Z,2.00
2022-12-18T04:28:27.316Z,1.98
2022-12-18T04:30:56.367Z,1.96
2022-12-18T04:33:24.095Z,1.95
2022-12-18T04:35:51.777Z,1.94
2022-12-18T04:38:19.459Z,1.93
2022-12-18T04:40:47.224Z,1.92
2022-12-18T04:43:14.923Z,1.92
2022-12-18T04:45:42.634Z,1.91
2022-12-18T04:48:11.636Z,1.91
2022-12-18T04:50:39.618Z,1.90
2022-12-18T04:53:08.700Z,1.88
2022-12-18T04:55:37.763Z,1.88
2022-12-18T04:58:05.904Z,1.86
2022-12-18T05:00:33.589Z,1.87
2022-12-18T05:03:03.468Z,1.84
2022-12-18T05:05:33.053Z,1.86
2022-12-18T05:08:01.709Z,1.84
2022-12-18T05:10:33.446Z,1.84
2022-12-18T05:13:05.373Z,1.80
2022-12-18T05:15:33.982Z,1.80
2022-12-18T05:18:02.721Z,1.79
2022-12-18T05:20:31.863Z,1.77
2022-12-18T05:22:59.537Z,1.77
2022-12-18T05:25:27.382Z,1.77
2022-12-18T05:27:55.209Z,1.75
2022-12-18T05:30:23.437Z,1.73
2022-12-18T05:32:51.106Z,1.73
2022-12-18T05:35:18.924Z,1.72
2022-12-18T05:37:47.947Z,1.73
2022-12-18T05:40:15.589Z,1.71
2022-12-18T05:42:48.005Z,1.70
2022-12-18T05:45:15.645Z,1.68
2022-12-18T05:47:43.343Z,1.68
2022-12-18T05:50:11.375Z,1.68
2022-12-18T05:52:39.078Z,1.67
2022-12-18T05:55:08.720Z,1.63
2022-12-18T05:57:36.394Z,1.62
2022-12-18T06:00:04.609Z,1.61
2022-12-18T06:02:32.365Z,1.61
2022-12-18T06:05:00.080Z,1.70
2022-12-18T06:07:27.776Z,1.74
2022-12-18T06:09:55.456Z,1.77
2022-12-18T06:12:24.520Z,1.85
2022-12-18T06:14:52.211Z,1.94
2022-12-18T06:17:19.878Z,2.04
2022-12-18T06:19:47.568Z,2.19
2022-12-18T06:22:15.266Z,2.30
2022-12-18T06:24:42.938Z,2.43
2022-12-18T06:27:10.650Z,2.54
2022-12-18T06:29:39.738Z,2.68
2022-12-18T06:32:07.467Z,2.80
2022-12-18T06:34:35.603Z,2.89
2022-12-18T06:37:03.275Z,2.90
2022-12-18T06:39:31.169Z,3.11
2022-12-18T06:41:58.892Z,3.19
2022-12-18T06:44:26.560Z,3.20
2022-12-18T06:46:55.595Z,3.12
2022-12-18T06:49:27.362Z,3.24
2022-12-18T06:51:57.905Z,3.10
2022-12-18T06:54:25.553Z,2.92
2022-12-18T06:56:53.201Z,2.74
2022-12-18T06:59:21.180Z,2.55
2022-12-18T07:01:48.900Z,2.38
2022-12-18T07:04:18.108Z,2.26
2022-12-18T07:06:45.770Z,2.17
2022-12-18T07:09:13.399Z,2.10
2022-12-18T07:11:41.196Z,2.05
2022-12-18T07:14:08.936Z,1.98
2022-12-18T07:16:36.610Z,1.93
2022-12-18T07:19:04.521Z,1.85
2022-12-18T07:21:33.626Z,1.83
2022-12-18T07:24:01.428Z,1.78
2022-12-18T07:26:29.089Z,1.75
2022-12-18T07:28:58.430Z,1.71
2022-12-18T07:31:26.961Z,1.70
2022-12-18T07:33:54.681Z,1.79
2022-12-18T07:36:22.348Z,1.94
2022-12-18T07:38:52.946Z,2.11
2022-12-18T07:41:21.392Z,2.22
2022-12-18T07:43:49.755Z,2.35
2022-12-18T07:46:18.593Z,2.46
2022-12-18T07:48:49.896Z,2.63
2022-12-18T07:51:19.039Z,2.73
2022-12-18T07:53:46.709Z,2.86
2022-12-18T07:56:27.030Z,3.00
2022-12-18T07:58:56.190Z,3.06
2022-12-18T08:01:24.167Z,3.11
2022-12-18T08:03:52.166Z,3.17
2022-12-18T08:06:24.179Z,3.05
2022-12-18T08:08:53.712Z,2.90
2022-12-18T08:11:23.611Z,2.70
2022-12-18T08:13:51.406Z,2.62
2022-12-18T08:16:20.101Z,2.47
2022-12-18T08:18:49.503Z,2.33
2022-12-18T08:21:20.607Z,2.22
2022-12-18T08:23:49.656Z,2.13
2022-12-18T08:26:19.000Z,2.08
2022-12-18T08:28:48.487Z,2.02
2022-12-18T08:31:16.986Z,1.98
2022-12-18T08:33:44.802Z,1.94
2022-12-18T08:36:12.653Z,1.93
2022-12-18T08:38:40.993Z,1.89
2022-12-18T08:41:11.467Z,1.86
2022-12-18T08:43:56.750Z,1.80
2022-12-18T08:46:27.820Z,1.79
2022-12-18T08:48:56.939Z,1.78
2022-12-18T08:51:24.696Z,1.73
2022-12-18T08:53:52.424Z,1.73
2022-12-18T08:56:20.163Z,1.70
2022-12-18T08:58:47.993Z,1.68
2022-12-18T09:01:15.823Z,1.70
2022-12-18T09:03:45.249Z,1.85
2022-12-18T09:06:16.647Z,1.98
2022-12-18T09:08:44.779Z,2.13
2022-12-18T09:11:16.919Z,2.29
2022-12-18T09:13:44.712Z,2.37
2022-12-18T09:16:12.402Z,2.37
2022-12-18T09:18:40.524Z,2.32
2022-12-18T09:21:14.644Z,2.24
2022-12-18T09:23:43.025Z,2.10
2022-12-18T09:26:11.174Z,2.09
2022-12-18T09:28:39.419Z,2.03
2022-12-18T09:31:09.411Z,1.96
2022-12-18T09:33:37.495Z,1.96
2022-12-18T09:36:07.652Z,1.95
2022-12-18T09:38:37.506Z,1.89
2022-12-18T09:41:17.372Z,1.88
2022-12-18T09:43:49.497Z,1.86
2022-12-18T09:46:26.422Z,1.83
2022-12-18T09:48:56.535Z,1.80
2022-12-18T09:51:29.346Z,1.78
2022-12-18T09:54:03.176Z,1.77
2022-12-18T09:56:33.759Z,1.77
2022-12-18T09:59:02.991Z,1.79
2022-12-18T10:01:40.209Z,1.92
2022-12-18T10:04:11.623Z,2.09
2022-12-18T10:06:45.240Z,2.27
2022-12-18T10:09:22.492Z,2.43
2022-12-18T10:11:57.341Z,2.61
2022-12-18T10:14:31.519Z,2.82
2022-12-18T10:17:04.886Z,2.99
2022-12-18T10:19:41.913Z,3.12
2022-12-18T10:22:15.953Z,3.11
2022-12-18T10:24:53.538Z,2.98
2022-12-18T10:27:25.767Z,2.87
2022-12-18T10:29:53.541Z,2.74
2022-12-18T10:32:23.683Z,2.67
2022-12-18T10:34:58.298Z,2.57
2022-12-18T10:37:30.782Z,2.48
2022-12-18T10:40:18.290Z,2.43
2022-12-18T10:43:04.809Z,2.38
2022-12-18T10:45:32.572Z,2.35
2022-12-18T10:48:00.699Z,2.31
2022-12-18T10:51:08.719Z,2.26
2022-12-18T10:53:23.638Z,2.23
2022-12-18T10:55:54.514Z,2.23
2022-12-18T10:58:26.881Z,2.21
2022-12-18T11:01:07.626Z,2.16
2022-12-18T11:03:37.710Z,2.15
2022-12-18T11:06:08.330Z,2.17
2022-12-18T11:08:36.392Z,2.17
2022-12-18T11:11:09.100Z,2.17
2022-12-18T11:13:36.849Z,2.18
2022-12-18T11:16:04.648Z,2.21
2022-12-18T11:18:35.648Z,2.23
2022-12-18T11:21:10.129Z,2.26
2022-12-18T11:23:39.425Z,2.28
2022-12-18T11:26:09.301Z,2.23
2022-12-18T11:28:41.428Z,2.29
2022-12-18T11:31:29.192Z,2.30
2022-12-18T11:36:50.125Z,2.20
2022-12-18T11:39:22.494Z,2.32
2022-12-18T11:42:13.394Z,2.34
2022-12-18T11:44:48.353Z,2.35
2022-12-18T11:47:27.269Z,2.36
2022-12-18T11:49:57.989Z,2.35
2022-12-18T11:52:29.300Z,2.37
2022-12-18T11:55:00.754Z,2.37
2022-12-18T11:57:40.405Z,2.37
2022-12-18T12:00:15.952Z,2.38
2022-12-18T12:03:10.170Z,2.51
2022-12-18T12:05:52.255Z,2.70
2022-12-18T12:08:30.402Z,2.89
2022-12-18T12:11:06.955Z,3.05
2022-12-18T12:13:50.517Z,3.24
2022-12-18T12:16:24.270Z,3.35
2022-12-18T12:19:17.616Z,3.50
2022-12-18T12:21:54.572Z,3.47
2022-12-18T12:24:32.806Z,3.36
2022-12-18T12:27:07.800Z,3.29
2022-12-18T12:29:49.742Z,3.25
2022-12-18T12:32:29.304Z,3.22
2022-12-18T12:35:10.232Z,3.17
2022-12-18T12:37:50.276Z,3.14
2022-12-18T12:40:50.319Z,3.08
2022-12-18T12:43:21.440Z,3.06
2022-12-18T12:45:54.391Z,3.02
2022-12-18T12:48:35.095Z,3.00
2022-12-18T12:51:09.248Z,3.11
2022-12-18T12:53:40.153Z,3.25
2022-12-18T12:56:11.674Z,3.43
2022-12-18T12:58:49.092Z,3.64
2022-12-18T13:01:30.731Z,3.81
2022-12-18T13:04:08.441Z,3.95
2022-12-18T13:06:46.283Z,4.04
2022-12-18T13:09:14.386Z,3.96
2022-12-18T13:12:01.155Z,3.83
2022-12-18T13:14:32.042Z,3.69
2022-12-18T13:17:19.358Z,3.53
2022-12-18T13:19:50.896Z,3.44
2022-12-18T13:22:24.801Z,3.37
2022-12-18T13:24:53.373Z,3.31
2022-12-18T13:28:05.289Z,3.28
2022-12-18T13:30:50.937Z,3.22
2022-12-18T13:36:40.696Z,3.17
2022-12-18T13:39:35.169Z,3.07
2022-12-18T13:42:57.068Z,3.09
2022-12-18T13:45:42.174Z,3.04
2022-12-18T13:48:23.037Z,3.02
2022-12-18T13:50:55.887Z,2.99
2022-12-18T13:53:28.475Z,2.97
2022-12-18T13:55:56.773Z,2.94
2022-12-18T13:58:24.583Z,2.92
2022-12-18T14:00:52.430Z,2.93
2022-12-18T14:03:23.687Z,2.89
2022-12-18T14:06:00.705Z,2.90
2022-12-18T14:08:34.324Z,2.86
2022-12-18T14:11:04.367Z,2.86
2022-12-18T14:13:35.954Z,2.87
2022-12-18T14:16:07.411Z,2.88
2022-12-18T14:18:44.142Z,2.97
2022-12-18T14:21:22.214Z,3.13
2022-12-18T14:23:50.152Z,3.25
2022-12-18T14:26:25.515Z,3.35
2022-12-18T14:28:54.863Z,3.37
2022-12-18T14:31:24.497Z,3.33
2022-12-18T14:33:53.436Z,3.28
2022-12-18T14:36:24.588Z,3.21
2022-12-18T14:38:54.673Z,3.15
2022-12-18T14:41:23.997Z,3.16
2022-12-18T14:43:53.041Z,3.13
2022-12-18T14:46:30.555Z,3.08
2022-12-18T14:48:59.013Z,3.06
2022-12-18T14:51:29.950Z,3.05
2022-12-18T14:53:59.605Z,3.25
2022-12-18T14:56:29.278Z,3.41
2022-12-18T14:58:59.581Z,3.58
2022-12-18T15:01:33.512Z,3.74
2022-12-18T15:04:02.935Z,3.92
2022-12-18T15:06:37.666Z,4.08
2022-12-18T15:09:22.687Z,4.23
2022-12-18T15:11:51.370Z,4.32
2022-12-18T15:14:33.430Z,4.42
2022-12-18T15:17:02.382Z,4.50
2022-12-18T15:19:37.296Z,4.55
2022-12-18T15:22:06.965Z,4.46
2022-12-18T15:24:34.983Z,4.31
2022-12-18T15:27:03.081Z,4.12
2022-12-18T15:29:30.886Z,3.96
2022-12-18T15:32:04.031Z,3.81
2022-12-18T15:34:33.240Z,3.72
2022-12-18T15:37:00.935Z,3.66
2022-12-18T15:39:30.362Z,3.64
2022-12-18T15:42:15.438Z,3.57
2022-12-18T15:44:43.151Z,3.53
2022-12-18T15:47:14.589Z,3.49
2022-12-18T15:49:42.360Z,3.44
2022-12-18T15:52:14.448Z,3.40
2022-12-18T15:55:09.241Z,3.39
2022-12-18T15:57:37.180Z,3.36
2022-12-18T16:00:05.653Z,3.33
2022-12-18T16:02:33.537Z,3.42
2022-12-18T16:05:01.384Z,3.55
2022-12-18T16:07:30.751Z,3.70
2022-12-18T16:10:01.002Z,3.85
2022-12-18T16:12:30.532Z,4.02
2022-12-18T16:14:58.275Z,4.19
2022-12-18T16:17:25.990Z,4.34
2022-12-18T16:19:54.135Z,4.45
2022-12-18T16:22:23.822Z,4.43
2022-12-18T16:24:52.369Z,4.33
2022-12-18T16:27:22.020Z,4.16
2022-12-18T16:29:50.477Z,4.06
2022-12-18T16:32:20.482Z,3.95
2022-12-18T16:34:48.663Z,3.85
2022-12-18T16:37:17.602Z,3.79
2022-12-18T16:39:46.177Z,3.66
2022-12-18T16:42:17.562Z,3.65
2022-12-18T16:44:47.986Z,3.61
2022-12-18T16:47:16.418Z,3.57
2022-12-18T16:49:45.278Z,3.56
2022-12-18T16:52:13.212Z,3.52
2022-12-18T16:54:40.897Z,3.51
2022-12-18T16:57:08.622Z,3.46
2022-12-18T16:59:36.327Z,3.45
2022-12-18T17:02:05.688Z,3.44
2022-12-18T17:04:33.737Z,3.44
2022-12-18T17:07:01.417Z,3.42
2022-12-18T17:09:29.093Z,3.39
2022-12-18T17:11:57.201Z,3.36
2022-12-18T17:14:26.286Z,3.35
2022-12-18T17:17:19.931Z,3.34
2022-12-18T17:19:45.978Z,3.35
2022-12-18T17:22:13.703Z,3.37
2022-12-18T17:24:41.399Z,3.39
2022-12-18T17:27:09.488Z,3.39
2022-12-18T17:29:41.134Z,3.43
2022-12-18T17:32:13.001Z,3.53
2022-12-18T17:34:40.974Z,3.67
2022-12-18T17:37:10.454Z,3.83
2022-12-18T17:39:38.388Z,4.01
2022-12-18T17:42:06.771Z,4.15
2022-12-18T17:44:35.606Z,4.36
2022-12-18T17:47:03.497Z,4.51
2022-12-18T17:49:31.333Z,4.63
2022-12-18T17:51:59.106Z,4.64
2022-12-18T17:54:28.166Z,4.57
2022-12-18T17:56:55.826Z,4.46
2022-12-18T17:59:23.710Z,4.34
2022-12-18T18:01:51.525Z,4.28
2022-12-18T18:04:19.945Z,4.17
2022-12-18T18:06:47.767Z,4.15
2022-12-18T18:09:16.534Z,4.11
2022-12-18T18:12:04.489Z,4.06
2022-12-18T18:14:33.075Z,4.00
2022-12-18T18:17:04.811Z,3.95
2022-12-18T18:19:34.102Z,3.86
2022-12-18T18:22:02.958Z,3.87
2022-12-18T18:24:31.139Z,3.85
2022-12-18T18:27:00.596Z,3.86
2022-12-18T18:29:30.307Z,3.82
2022-12-18T18:31:58.261Z,3.90
2022-12-18T18:34:28.300Z,3.90
2022-12-18T18:36:55.980Z,3.89
2022-12-18T18:39:23.632Z,3.87
2022-12-18T18:41:52.086Z,3.87
2022-12-18T18:44:26.053Z,3.87
2022-12-18T18:46:54.929Z,3.87
2022-12-18T18:49:24.127Z,3.98
2022-12-18T18:51:52.119Z,4.15
2022-12-18T18:54:20.808Z,4.30
2022-12-18T18:59:39.077Z,4.63
2022-12-18T19:02:07.513Z,4.78
2022-12-18T19:04:36.498Z,4.94
2022-12-18T19:07:06.706Z,5.11
2022-12-18T19:09:36.172Z,5.09
2022-12-18T19:12:22.449Z,5.00
2022-12-18T19:14:51.584Z,4.82
2022-12-18T19:17:19.256Z,4.67
2022-12-18T19:19:46.987Z,4.57
2022-12-18T19:22:14.735Z,4.45
2022-12-18T19:24:42.416Z,4.37
2022-12-18T19:27:10.156Z,4.29
2022-12-18T19:29:37.912Z,4.21
2022-12-18T19:32:07.386Z,4.15
2022-12-18T19:34:35.151Z,4.12
2022-12-18T19:37:02.807Z,4.05
2022-12-18T19:39:30.643Z,4.03
2022-12-18T19:41:58.408Z,4.00
2022-12-18T19:44:26.814Z,3.98
2022-12-18T19:46:54.526Z,3.92
2022-12-18T19:49:23.560Z,3.89
2022-12-18T19:51:51.970Z,3.87
2022-12-18T19:54:19.793Z,3.85
2022-12-18T19:56:47.731Z,3.82
2022-12-18T19:59:15.444Z,3.80
2022-12-18T20:01:43.462Z,3.77
2022-12-18T20:04:11.334Z,3.78
2022-12-18T20:06:49.122Z,3.69
2022-12-18T20:09:17.902Z,3.76
2022-12-18T20:11:46.962Z,3.75
2022-12-18T20:14:21.147Z,3.73
2022-12-18T20:16:51.688Z,3.73
2022-12-18T20:19:19.923Z,3.72
2022-12-18T20:21:49.703Z,3.71
2022-12-18T20:24:17.409Z,3.70
2022-12-18T20:26:45.210Z,3.71
2022-12-18T20:29:12.858Z,3.69
2022-12-18T20:31:40.680Z,3.70
2022-12-18T20:34:08.453Z,3.67
2022-12-18T20:36:37.551Z,3.65
2022-12-18T20:39:08.754Z,3.69
2022-12-18T20:41:37.859Z,3.69
2022-12-18T20:44:10.980Z,3.66
2022-12-18T20:46:51.851Z,3.70
2022-12-18T20:49:19.681Z,3.70
2022-12-18T20:51:50.341Z,3.71
2022-12-18T20:54:19.432Z,3.70
2022-12-18T20:56:47.151Z,3.70
2022-12-18T20:59:14.877Z,3.71
2022-12-18T21:01:47.558Z,3.70
2022-12-18T21:04:17.510Z,3.70
2022-12-18T21:06:51.257Z,3.70
2022-12-18T21:09:22.329Z,3.70
2022-12-18T21:12:08.046Z,3.67
2022-12-18T21:14:38.576Z,3.70
2022-12-18T21:17:06.528Z,3.70
2022-12-18T21:19:34.230Z,3.71
2022-12-18T21:22:02.193Z,3.72
2022-12-18T21:24:32.700Z,3.72
2022-12-18T21:27:02.050Z,3.74
2022-12-18T21:29:30.011Z,3.70
2022-12-18T21:31:57.660Z,3.75
2022-12-18T21:34:27.341Z,3.77
2022-12-18T21:36:56.599Z,3.78
2022-12-18T21:39:26.002Z,3.81
2022-12-18T21:42:12.596Z,3.80
2022-12-18T21:44:42.243Z,3.77
2022-12-18T21:47:22.188Z,3.73
2022-12-18T21:49:50.210Z,3.71
2022-12-18T21:52:17.998Z,3.76
2022-12-18T21:54:45.648Z,3.79
2022-12-18T21:57:14.828Z,3.75
2022-12-18T21:59:43.805Z,3.74
2022-12-18T22:02:14.029Z,3.72
2022-12-18T22:04:42.215Z,3.73
2022-12-18T22:07:10.414Z,3.73
2022-12-18T22:09:39.272Z,3.75
2022-12-18T22:12:08.980Z,3.75
2022-12-18T22:14:38.337Z,3.73
2022-12-18T22:17:06.032Z,3.76
2022-12-18T22:19:41.111Z,3.78
2022-12-18T22:22:10.655Z,3.77
2022-12-18T22:24:38.356Z,3.76
2022-12-18T22:27:06.039Z,3.78
2022-12-18T22:29:51.172Z,3.76
2022-12-18T22:32:29.434Z,3.77
2022-12-18T22:35:05.957Z,3.77
2022-12-18T22:37:35.066Z,3.80
2022-12-18T22:40:03.940Z,3.78
2022-12-18T22:42:31.934Z,3.79
2022-12-18T22:45:00.282Z,3.82
2022-12-18T22:47:30.635Z,3.81
2022-12-18T22:49:58.687Z,3.79
2022-12-18T22:52:26.439Z,3.80
2022-12-18T22:54:54.506Z,3.77
2022-12-18T22:57:22.615Z,3.80
2022-12-18T22:59:50.377Z,3.81
2022-12-18T23:02:19.048Z,3.81
2022-12-18T23:04:48.532Z,3.81
2022-12-18T23:07:16.618Z,3.82
2022-12-18T23:09:44.843Z,3.81
2022-12-18T23:12:21.169Z,3.80
2022-12-18T23:14:49.183Z,3.79
2022-12-18T23:17:16.999Z,3.81
2022-12-18T23:19:49.065Z,3.81
2022-12-18T23:22:18.665Z,3.82
2022-12-18T23:24:47.076Z,3.82
2022-12-18T23:27:14.912Z,3.81
2022-12-18T23:29:42.585Z,3.81
2022-12-18T23:32:11.193Z,3.83
2022-12-18T23:34:38.885Z,3.81
2022-12-18T23:37:06.532Z,3.81
2022-12-18T23:39:35.550Z,3.80
2022-12-18T23:42:03.183Z,3.79
2022-12-18T23:44:30.934Z,3.80
2022-12-18T23:46:58.623Z,3.79
2022-12-18T23:49:26.311Z,3.81
2022-12-18T23:51:54.901Z,3.81
2022-12-18T23:54:30.155Z,3.81
2022-12-18T23:57:02.779Z,3.81
2022-12-18T23:59:30.487Z,3.81
